createdAt,value
2022-11-17T00:02:24.209Z,7.32
2022-11-17T00:04:51.338Z,7.80
2022-11-17T00:07:18.559Z,7.20
2022-11-17T00:09:45.671Z,6.75
2022-11-17T00:12:33.021Z,7.10
2022-11-17T00:15:00.604Z,6.65
2022-11-17T00:17:27.976Z,6.35
2022-11-17T00:20:13.654Z,6.22
2022-11-17T00:22:40.729Z,6.80
2022-11-17T00:25:08.242Z,6.70
2022-11-17T00:27:35.294Z,6.60
2022-11-17T00:30:02.437Z,7.18
2022-11-17T00:32:48.140Z,8.82
2022-11-17T00:35:15.403Z,8.55
2022-11-17T00:38:02.731Z,7.15
2022-11-17T00:40:30.191Z,6.93
2022-11-17T00:42:57.248Z,6.22
2022-11-17T00:45:24.453Z,5.50
2022-11-17T00:47:51.533Z,6.47
2022-11-17T00:50:18.611Z,5.63
2022-11-17T00:52:45.680Z,5.60
2022-11-17T00:55:12.871Z,5.72
2022-11-17T00:57:39.988Z,6.30
2022-11-17T01:00:08.009Z,6.50
2022-11-17T01:02:35.097Z,6.93
2022-11-17T01:05:03.064Z,6.32
2022-11-17T01:07:30.124Z,6.10
2022-11-17T01:09:57.276Z,5.65
2022-11-17T01:12:24.398Z,5.90
2022-11-17T01:14:51.539Z,6.68
2022-11-17T01:17:20.044Z,6.50
2022-11-17T01:19:49.033Z,5.80
2022-11-17T01:22:16.171Z,6.40
2022-11-17T01:24:43.233Z,6.10
2022-11-17T01:27:10.761Z,6.07
2022-11-17T01:29:37.990Z,6.18
2022-11-17T01:32:05.232Z,5.78
2022-11-17T01:34:32.336Z,5.93
2022-11-17T01:37:17.838Z,5.93
2022-11-17T01:39:45.467Z,6.32
2022-11-17T01:42:19.117Z,6.40
2022-11-17T01:44:55.679Z,6.60
2022-11-17T01:47:50.306Z,5.90
2022-11-17T01:50:40.433Z,6.38
2022-11-17T01:53:15.912Z,6.18
2022-11-17T01:55:55.074Z,6.35
2022-11-17T01:58:28.584Z,6.18
2022-11-17T02:00:56.079Z,6.55
2022-11-17T02:03:25.193Z,5.53
2022-11-17T02:06:01.374Z,5.45
2022-11-17T02:08:30.790Z,6.43
2022-11-17T02:10:58.891Z,6.65
2022-11-17T02:13:26.877Z,7.13
2022-11-17T02:15:53.947Z,6.80
2022-11-17T02:18:21.165Z,6.00
2022-11-17T02:20:54.178Z,5.10
2022-11-17T02:23:56.510Z,5.40
2022-11-17T02:26:45.180Z,4.97
2022-11-17T02:29:25.551Z,6.22
2022-11-17T02:32:10.298Z,5.63
2022-11-17T02:34:49.216Z,7.50
2022-11-17T02:37:26.167Z,6.28
2022-11-17T02:40:20.299Z,7.07
2022-11-17T02:43:28.754Z,6.88
2022-11-17T02:46:09.768Z,6.85
2022-11-17T02:48:40.709Z,6.05
2022-11-17T02:51:13.412Z,5.97
2022-11-17T02:53:41.435Z,6.03
2022-11-17T02:56:08.457Z,6.05
2022-11-17T02:58:35.438Z,5.95
2022-11-17T03:01:14.493Z,6.22
2022-11-17T03:03:44.188Z,6.10
2022-11-17T03:06:29.405Z,5.80
2022-11-17T03:09:18.259Z,5.68
2022-11-17T03:12:25.149Z,5.93
2022-11-17T03:14:55.782Z,5.90
2022-11-17T03:17:30.908Z,5.88
2022-11-17T03:20:20.372Z,5.05
2022-11-17T03:22:59.647Z,6.05
2022-11-17T03:25:29.010Z,6.10
2022-11-17T03:28:01.073Z,5.68
2022-11-17T03:30:34.623Z,5.78
2022-11-17T03:33:10.416Z,6.53
2022-11-17T03:35:43.942Z,6.55
2022-11-17T03:38:15.790Z,5.88
2022-11-17T03:40:47.735Z,6.07
2022-11-17T03:43:19.157Z,6.45
2022-11-17T03:45:50.576Z,5.35
2022-11-17T03:48:41.379Z,6.07
2022-11-17T03:51:13.327Z,6.30
2022-11-17T03:53:41.097Z,6.68
2022-11-17T03:56:11.528Z,7.18
2022-11-17T03:58:50.221Z,6.15
2022-11-17T04:01:19.713Z,6.53
2022-11-17T04:03:46.684Z,5.35
2022-11-17T04:06:13.626Z,5.15
2022-11-17T04:08:40.627Z,5.05
2022-11-17T04:11:25.979Z,4.50
2022-11-17T04:14:12.045Z,5.35
2022-11-17T04:16:38.989Z,5.85
2022-11-17T04:19:06.142Z,6.68
2022-11-17T04:21:33.130Z,6.85
2022-11-17T04:24:00.278Z,6.80
2022-11-17T04:26:46.149Z,6.72
2022-11-17T04:29:13.153Z,6.82
2022-11-17T04:31:40.144Z,7.28
2022-11-17T04:34:08.390Z,8.10
2022-11-17T04:36:45.756Z,7.53
2022-11-17T04:39:14.446Z,8.88
2022-11-17T04:41:54.501Z,8.80
2022-11-17T04:44:23.774Z,7.78
2022-11-17T04:46:51.753Z,6.53
2022-11-17T04:49:20.294Z,7.10
2022-11-17T04:51:47.915Z,8.85
2022-11-17T04:54:18.101Z,8.38
2022-11-17T04:56:45.794Z,7.68
2022-11-17T04:59:13.108Z,8.50
2022-11-17T05:01:40.382Z,8.20
2022-11-17T05:04:11.954Z,7.90
2022-11-17T05:06:41.489Z,6.63
2022-11-17T05:09:15.120Z,5.35
2022-11-17T05:12:01.305Z,6.93
2022-11-17T05:14:29.018Z,7.22
2022-11-17T05:17:11.345Z,7.43
2022-11-17T05:19:47.116Z,7.32
2022-11-17T05:22:36.387Z,7.50
2022-11-17T05:25:04.771Z,6.55
2022-11-17T05:27:31.813Z,6.30
2022-11-17T05:29:58.796Z,5.18
2022-11-17T05:32:25.749Z,5.28
2022-11-17T05:34:52.691Z,4.95
2022-11-17T05:37:19.719Z,4.53
2022-11-17T05:39:47.073Z,4.45
2022-11-17T05:42:14.052Z,4.50
2022-11-17T05:44:41.067Z,5.30
2022-11-17T05:47:08.118Z,5.45
2022-11-17T05:49:35.202Z,5.18
2022-11-17T05:52:02.144Z,5.97
2022-11-17T05:54:29.115Z,5.40
2022-11-17T05:57:03.495Z,4.40
2022-11-17T05:59:39.412Z,4.68
2022-11-17T06:02:29.904Z,3.78
2022-11-17T06:04:56.851Z,4.00
2022-11-17T06:07:23.836Z,3.83
2022-11-17T06:09:52.700Z,4.43
2022-11-17T06:12:19.633Z,3.60
2022-11-17T06:14:46.592Z,3.63
2022-11-17T06:17:23.761Z,3.60
2022-11-17T06:19:56.663Z,3.35
2022-11-17T06:22:26.898Z,3.92
2022-11-17T06:24:55.205Z,4.10
2022-11-17T06:27:22.960Z,3.83
2022-11-17T06:29:50.361Z,3.60
2022-11-17T06:32:19.105Z,3.45
2022-11-17T06:34:53.849Z,3.10
2022-11-17T06:37:23.869Z,3.20
2022-11-17T06:39:50.824Z,3.33
2022-11-17T06:42:18.000Z,3.13
2022-11-17T06:44:44.940Z,7.18
2022-11-17T06:47:11.947Z,3.30
2022-11-17T06:49:38.877Z,4.07
2022-11-17T06:52:05.874Z,3.38
2022-11-17T06:54:32.784Z,3.13
2022-11-17T06:56:59.856Z,3.53
2022-11-17T06:59:26.987Z,3.78
2022-11-17T07:01:53.877Z,3.80
2022-11-17T07:04:20.781Z,4.68
2022-11-17T07:06:47.836Z,5.07
2022-11-17T07:09:14.869Z,3.97
2022-11-17T07:11:41.800Z,4.13
2022-11-17T07:14:08.985Z,10.57
2022-11-17T07:16:36.998Z,5.22
2022-11-17T07:19:04.040Z,6.15
2022-11-17T07:21:32.122Z,5.43
2022-11-17T07:23:59.203Z,4.82
2022-11-17T07:26:26.161Z,5.60
2022-11-17T07:28:53.196Z,5.07
2022-11-17T07:31:20.138Z,8.13
2022-11-17T07:33:47.382Z,6.50
2022-11-17T07:36:15.530Z,5.05
2022-11-17T07:38:42.827Z,5.75
2022-11-17T07:41:12.832Z,5.22
2022-11-17T07:43:40.433Z,5.63
2022-11-17T07:46:13.285Z,5.68
2022-11-17T07:48:40.696Z,5.60
2022-11-17T07:51:09.431Z,4.88
2022-11-17T07:53:36.657Z,6.05
2022-11-17T07:56:09.090Z,5.40
2022-11-17T07:58:36.933Z,6.18
2022-11-17T08:01:15.747Z,5.55
2022-11-17T08:03:45.893Z,6.18
2022-11-17T08:06:13.102Z,6.22
2022-11-17T08:08:40.325Z,5.40
2022-11-17T08:11:10.208Z,6.53
2022-11-17T08:13:38.284Z,5.72
2022-11-17T08:16:06.717Z,5.68
2022-11-17T08:18:34.265Z,5.57
2022-11-17T08:21:06.422Z,5.97
2022-11-17T08:23:34.859Z,5.65
2022-11-17T08:26:02.934Z,5.35
2022-11-17T08:28:30.355Z,8.57
2022-11-17T08:30:57.526Z,6.47
2022-11-17T08:33:24.462Z,7.32
2022-11-17T08:35:51.831Z,6.15
2022-11-17T08:38:18.760Z,9.23
2022-11-17T08:40:46.896Z,7.32
2022-11-17T08:43:13.823Z,9.60
2022-11-17T08:45:42.760Z,9.68
2022-11-17T08:48:09.745Z,6.03
2022-11-17T08:50:36.680Z,6.28
2022-11-17T08:53:03.667Z,6.43
2022-11-17T08:55:30.717Z,5.88
2022-11-17T08:57:57.802Z,8.93
2022-11-17T09:00:25.147Z,6.95
2022-11-17T09:02:52.143Z,6.70
2022-11-17T09:05:19.085Z,6.45
2022-11-17T09:07:46.161Z,6.32
2022-11-17T09:10:13.158Z,6.60
2022-11-17T09:12:40.246Z,6.72
2022-11-17T09:15:07.650Z,6.25
2022-11-17T09:17:34.718Z,13.07
2022-11-17T09:20:01.924Z,6.65
2022-11-17T09:22:28.925Z,7.75
2022-11-17T09:24:55.913Z,7.65
2022-11-17T09:27:22.915Z,6.57
2022-11-17T09:29:49.904Z,7.07
2022-11-17T09:32:17.264Z,85.55
2022-11-17T09:34:44.395Z,10.07
2022-11-17T09:37:11.413Z,34.00
2022-11-17T09:39:38.414Z,9.65
2022-11-17T09:42:07.227Z,12.35
2022-11-17T09:44:40.929Z,16.25
2022-11-17T09:47:10.983Z,15.02
2022-11-17T09:49:43.533Z,8.38
2022-11-17T09:52:19.850Z,7.47
2022-11-17T09:54:57.392Z,8.32
2022-11-17T09:57:26.875Z,8.93
2022-11-17T10:00:34.006Z,8.73
2022-11-17T10:03:01.485Z,8.93
2022-11-17T10:05:28.788Z,9.77
2022-11-17T10:08:06.651Z,12.23
2022-11-17T10:10:51.277Z,9.07
2022-11-17T10:13:33.715Z,8.68
2022-11-17T10:16:12.902Z,8.32
2022-11-17T10:18:40.319Z,8.98
2022-11-17T10:21:09.545Z,9.40
2022-11-17T10:23:46.076Z,9.57
2022-11-17T10:26:16.805Z,10.10
2022-11-17T10:28:44.228Z,11.30
2022-11-17T10:31:11.168Z,10.38
2022-11-17T10:33:43.974Z,10.15
2022-11-17T10:36:30.989Z,10.25
2022-11-17T10:39:00.539Z,10.15
2022-11-17T10:41:39.849Z,10.07
2022-11-17T10:44:14.852Z,10.02
2022-11-17T10:47:02.738Z,9.93
2022-11-17T10:49:35.714Z,9.50
2022-11-17T10:52:11.781Z,9.57
2022-11-17T10:54:39.148Z,9.57
2022-11-17T10:57:15.611Z,10.80
2022-11-17T10:59:57.891Z,11.98
2022-11-17T11:02:35.848Z,9.95
2022-11-17T11:05:12.040Z,10.32
2022-11-17T11:07:40.040Z,9.63
2022-11-17T11:10:34.770Z,12.15
2022-11-17T11:13:26.410Z,10.50
2022-11-17T11:15:54.043Z,9.68
2022-11-17T11:18:21.371Z,11.27
2022-11-17T11:21:23.033Z,13.80
2022-11-17T11:24:08.100Z,17.17
2022-11-17T11:26:41.386Z,20.63
2022-11-17T11:29:44.289Z,25.05
2022-11-17T11:32:23.304Z,31.25
2022-11-17T11:35:27.714Z,14.68
2022-11-17T11:38:32.102Z,11.38
2022-11-17T11:41:24.251Z,13.05
2022-11-17T11:43:54.269Z,13.73
2022-11-17T11:46:33.734Z,10.20
2022-11-17T11:49:32.866Z,11.25
2022-11-17T11:52:01.057Z,11.30
2022-11-17T11:54:32.968Z,11.10
2022-11-17T11:57:01.958Z,13.95
2022-11-17T11:59:53.585Z,16.85
2022-11-17T12:02:57.029Z,13.43
2022-11-17T12:05:29.406Z,10.68
2022-11-17T12:08:12.365Z,16.42
2022-11-17T12:11:45.578Z,12.98
2022-11-17T12:14:18.123Z,10.43
2022-11-17T12:16:46.852Z,11.10
2022-11-17T12:19:42.979Z,11.52
2022-11-17T12:22:15.037Z,12.13
2022-11-17T12:24:42.487Z,16.73
2022-11-17T12:27:34.178Z,11.25
2022-11-17T12:30:02.826Z,12.68
2022-11-17T12:32:44.982Z,79.70
2022-11-17T12:35:39.613Z,36.47
2022-11-17T12:38:15.653Z,11.77
2022-11-17T12:40:43.925Z,7.60
2022-11-17T12:43:17.018Z,7.32
2022-11-17T12:45:56.271Z,8.40
2022-11-17T12:48:34.023Z,9.40
2022-11-17T12:51:23.221Z,14.35
2022-11-17T12:54:28.661Z,12.30
2022-11-17T12:57:08.325Z,13.00
2022-11-17T12:59:50.579Z,9.52
2022-11-17T13:02:17.527Z,18.13
2022-11-17T13:05:16.517Z,8.05
2022-11-17T13:07:43.756Z,17.30
2022-11-17T13:10:24.741Z,14.45
2022-11-17T13:13:09.605Z,6.43
2022-11-17T13:15:37.402Z,14.73
2022-11-17T13:18:11.825Z,13.80
2022-11-17T13:20:39.889Z,13.05
2022-11-17T13:23:18.651Z,17.27
2022-11-17T13:25:46.158Z,19.73
2022-11-17T13:28:31.342Z,26.55
2022-11-17T13:31:00.109Z,19.40
2022-11-17T13:33:28.300Z,28.33
2022-11-17T13:36:20.248Z,19.83
2022-11-17T13:38:52.742Z,11.38
2022-11-17T13:41:22.288Z,8.40
2022-11-17T13:43:50.803Z,24.45
2022-11-17T13:46:18.212Z,21.95
2022-11-17T13:48:47.200Z,21.90
2022-11-17T13:51:42.419Z,15.73
2022-11-17T13:54:12.871Z,14.18
2022-11-17T13:56:41.986Z,23.23
2022-11-17T13:59:28.964Z,23.23
2022-11-17T14:02:17.383Z,19.52
2022-11-17T14:05:23.363Z,16.38
2022-11-17T14:07:51.726Z,11.45
2022-11-17T14:10:21.705Z,12.40
2022-11-17T14:12:53.418Z,16.30
2022-11-17T14:15:26.091Z,12.50
2022-11-17T14:18:01.853Z,12.65
2022-11-17T14:20:34.633Z,17.85
2022-11-17T14:23:09.232Z,15.00
2022-11-17T14:25:41.751Z,11.02
2022-11-17T14:28:20.982Z,22.27
2022-11-17T14:30:52.499Z,14.30
2022-11-17T14:33:19.879Z,13.45
2022-11-17T14:35:55.569Z,15.00
2022-11-17T14:38:23.382Z,13.93
2022-11-17T14:40:52.015Z,16.17
2022-11-17T14:43:21.194Z,14.15
2022-11-17T14:45:49.486Z,20.35
2022-11-17T14:48:19.345Z,14.10
2022-11-17T14:50:47.781Z,12.73
2022-11-17T14:53:15.020Z,17.70
2022-11-17T14:55:42.145Z,19.63
2022-11-17T14:58:10.276Z,16.65
2022-11-17T15:00:37.808Z,13.52
2022-11-17T15:03:05.113Z,13.52
2022-11-17T15:05:33.192Z,15.43
2022-11-17T15:08:00.175Z,11.43
2022-11-17T15:10:27.180Z,10.73
2022-11-17T15:12:54.128Z,10.13
2022-11-17T15:15:21.081Z,10.02
2022-11-17T15:17:48.030Z,10.63
2022-11-17T15:20:18.340Z,11.70
2022-11-17T15:22:45.737Z,10.43
2022-11-17T15:25:12.715Z,8.68
2022-11-17T15:27:39.673Z,11.40
2022-11-17T15:30:07.382Z,13.18
2022-11-17T15:32:34.335Z,9.18
2022-11-17T15:35:01.294Z,9.32
2022-11-17T15:37:28.929Z,9.98
2022-11-17T15:39:55.888Z,10.82
2022-11-17T15:42:22.859Z,12.77
2022-11-17T15:44:49.812Z,12.88
2022-11-17T15:47:16.758Z,13.07
2022-11-17T15:49:44.173Z,14.30
2022-11-17T15:52:11.094Z,15.18
2022-11-17T15:54:38.122Z,15.75
2022-11-17T15:57:05.457Z,16.35
2022-11-17T15:59:32.415Z,17.65
2022-11-17T16:01:59.525Z,18.27
2022-11-17T16:04:26.482Z,19.17
2022-11-17T16:06:53.478Z,18.48
2022-11-17T16:09:20.805Z,20.23
2022-11-17T16:11:47.918Z,18.70
2022-11-17T16:14:15.360Z,19.50
2022-11-17T16:16:42.520Z,20.17
2022-11-17T16:19:09.550Z,21.02
2022-11-17T16:21:36.532Z,20.83
2022-11-17T16:24:03.722Z,20.80
2022-11-17T16:26:32.278Z,19.52
2022-11-17T16:29:05.054Z,19.52
2022-11-17T16:31:34.020Z,18.30
2022-11-17T16:34:03.030Z,18.27
2022-11-17T16:36:36.562Z,19.52
2022-11-17T16:39:06.300Z,23.25
2022-11-17T16:41:35.671Z,24.38
2022-11-17T16:44:06.652Z,18.85
2022-11-17T16:46:33.739Z,19.02
2022-11-17T16:49:03.855Z,18.35
2022-11-17T16:51:31.002Z,20.05
2022-11-17T16:54:03.127Z,24.83
2022-11-17T16:56:30.857Z,29.35
2022-11-17T16:58:58.982Z,32.15
2022-11-17T17:01:30.644Z,26.92
2022-11-17T17:04:06.882Z,32.10
2022-11-17T17:06:35.092Z,29.35
2022-11-17T17:09:06.939Z,34.00
2022-11-17T17:11:36.097Z,23.70
2022-11-17T17:14:05.293Z,23.00
2022-11-17T17:16:34.050Z,21.15
2022-11-17T17:19:04.471Z,23.33
2022-11-17T17:21:32.776Z,24.02
2022-11-17T17:24:00.191Z,30.33
2022-11-17T17:26:29.609Z,29.73
2022-11-17T17:28:58.981Z,32.20
2022-11-17T17:31:29.465Z,29.90
2022-11-17T17:33:56.943Z,25.67
2022-11-17T17:36:25.330Z,24.13
2022-11-17T17:38:56.284Z,25.20
2022-11-17T17:41:26.418Z,26.40
2022-11-17T17:44:01.466Z,26.52
2022-11-17T17:46:32.171Z,25.58
2022-11-17T17:51:28.496Z,24.92
2022-11-17T17:53:58.482Z,22.02
2022-11-17T17:56:26.145Z,20.65
2022-11-17T17:58:56.556Z,21.52
2022-11-17T18:01:38.277Z,21.77
2022-11-17T18:04:05.444Z,25.70
2022-11-17T18:06:41.826Z,23.85
2022-11-17T18:09:14.878Z,24.73
2022-11-17T18:11:50.534Z,27.88
2022-11-17T18:14:24.947Z,34.25
2022-11-17T18:16:53.138Z,33.20
2022-11-17T18:19:20.265Z,38.85
2022-11-17T18:21:47.299Z,34.67
2022-11-17T18:24:14.308Z,32.10
2022-11-17T18:26:41.552Z,40.70
2022-11-17T18:29:14.141Z,68.65
2022-11-17T18:31:41.788Z,59.10
2022-11-17T18:34:14.883Z,43.92
2022-11-17T18:36:41.874Z,46.72
2022-11-17T18:39:09.768Z,31.38
2022-11-17T18:41:38.031Z,38.10
2022-11-17T18:44:05.309Z,58.95
2022-11-17T18:46:33.822Z,80.78
2022-11-17T18:49:01.138Z,93.32
2022-11-17T18:51:31.547Z,36.92
2022-11-17T18:54:01.167Z,35.85
2022-11-17T18:56:32.191Z,29.95
2022-11-17T18:58:59.880Z,25.65
2022-11-17T19:01:28.687Z,25.27
2022-11-17T19:03:58.438Z,26.95
2022-11-17T19:06:26.146Z,30.30
2022-11-17T19:08:53.590Z,28.95
2022-11-17T19:11:22.592Z,27.90
2022-11-17T19:13:49.890Z,31.67
2022-11-17T19:16:23.093Z,27.85
2022-11-17T19:18:52.152Z,29.00
2022-11-17T19:21:22.363Z,25.65
2022-11-17T19:23:51.755Z,27.25
2022-11-17T19:26:31.055Z,30.48
2022-11-17T19:29:03.252Z,23.92
2022-11-17T19:31:30.919Z,25.02
2022-11-17T19:33:58.572Z,27.75
2022-11-17T19:36:30.861Z,34.10
2022-11-17T19:39:00.058Z,29.13
2022-11-17T19:41:35.533Z,23.48
2022-11-17T19:44:05.712Z,33.13
2022-11-17T19:46:33.838Z,27.55
2022-11-17T19:49:01.024Z,23.13
2022-11-17T19:51:34.215Z,24.88
2022-11-17T19:54:03.624Z,33.17
2022-11-17T19:56:31.067Z,39.05
2022-11-17T19:58:58.524Z,25.00
2022-11-17T20:01:28.187Z,21.13
2022-11-17T20:03:56.798Z,26.30
2022-11-17T20:06:27.642Z,20.05
2022-11-17T20:09:01.513Z,22.83
2022-11-17T20:11:29.250Z,23.15
2022-11-17T20:13:56.835Z,27.83
2022-11-17T20:16:26.343Z,22.65
2022-11-17T20:18:55.283Z,25.40
2022-11-17T20:21:23.221Z,26.73
2022-11-17T20:23:50.668Z,28.80
2022-11-17T20:26:26.598Z,28.52
2022-11-17T20:28:54.086Z,27.55
2022-11-17T20:31:24.655Z,27.15
2022-11-17T20:33:51.856Z,29.85
2022-11-17T20:36:20.789Z,27.20
2022-11-17T20:38:52.324Z,24.58
2022-11-17T20:41:21.253Z,23.42
2022-11-17T20:43:52.411Z,24.10
2022-11-17T20:46:20.191Z,24.95
2022-11-17T20:48:47.734Z,20.42
2022-11-17T20:51:17.542Z,18.02
2022-11-17T20:53:44.903Z,18.30
2022-11-17T20:56:13.622Z,22.63
2022-11-17T20:58:40.941Z,18.13
2022-11-17T21:01:17.128Z,14.98
2022-11-17T21:03:45.687Z,15.70
2022-11-17T21:06:14.192Z,18.13
2022-11-17T21:08:42.927Z,21.15
2022-11-17T21:11:32.448Z,17.77
2022-11-17T21:14:00.117Z,19.60
2022-11-17T21:16:27.596Z,23.77
2022-11-17T21:18:57.464Z,22.98
2022-11-17T21:21:24.809Z,21.63
2022-11-17T21:23:55.579Z,22.70
2022-11-17T21:28:50.498Z,20.42
2022-11-17T21:31:20.057Z,20.95
2022-11-17T21:33:56.170Z,20.63
2022-11-17T21:36:25.169Z,24.17
2022-11-17T21:38:52.590Z,25.33
2022-11-17T21:41:26.531Z,24.10
2022-11-17T21:43:55.642Z,25.75
2022-11-17T21:46:25.057Z,24.90
2022-11-17T21:48:53.462Z,24.55
2022-11-17T21:51:23.361Z,26.30
2022-11-17T21:53:55.239Z,27.77
2022-11-17T21:56:25.873Z,26.17
2022-11-17T21:58:56.537Z,26.58
2022-11-17T22:03:50.835Z,28.48
2022-11-17T22:06:20.759Z,30.35
2022-11-17T22:08:48.532Z,31.75
2022-11-17T22:11:35.871Z,30.60
2022-11-17T22:14:12.338Z,36.28
2022-11-17T22:16:44.629Z,31.92
2022-11-17T22:19:12.769Z,34.03
2022-11-17T22:21:40.440Z,31.55
2022-11-17T22:24:10.382Z,27.48
2022-11-17T22:26:39.282Z,28.77
2022-11-17T22:29:08.451Z,23.48
2022-11-17T22:31:35.376Z,12.55
2022-11-17T22:34:02.333Z,16.20
2022-11-17T22:36:29.517Z,14.52
2022-11-17T22:38:56.782Z,18.95
2022-11-17T22:41:24.071Z,23.50
2022-11-17T22:43:56.170Z,22.33
2022-11-17T22:46:27.749Z,22.35
2022-11-17T22:48:54.995Z,23.52
2022-11-17T22:51:40.521Z,26.40
2022-11-17T22:54:08.651Z,27.05
2022-11-17T22:56:36.373Z,24.35
2022-11-17T22:59:03.440Z,28.00
2022-11-17T23:01:30.544Z,26.35
2022-11-17T23:03:57.890Z,26.90
2022-11-17T23:06:24.956Z,29.55
2022-11-17T23:08:51.944Z,31.13
2022-11-17T23:11:36.674Z,27.65
2022-11-17T23:14:07.268Z,23.75
2022-11-17T23:16:34.343Z,27.95
2022-11-17T23:19:04.381Z,28.55
2022-11-17T23:21:31.796Z,24.70
2022-11-17T23:23:58.785Z,24.52
2022-11-17T23:26:25.814Z,24.42
2022-11-17T23:28:53.086Z,24.80
2022-11-17T23:31:20.778Z,24.25
2022-11-17T23:33:48.410Z,27.35
2022-11-17T23:36:18.513Z,26.83
2022-11-17T23:38:46.504Z,27.25
2022-11-17T23:41:15.592Z,28.13
2022-11-17T23:43:43.313Z,27.38
2022-11-17T23:46:15.407Z,24.67
2022-11-17T23:48:43.174Z,24.40
2022-11-17T23:51:15.444Z,22.92
2022-11-17T23:53:43.380Z,25.95
2022-11-17T23:56:11.318Z,24.40
2022-11-17T23:58:38.509Z,23.15
